KFYM/FYM METAR and TAF weather

Enter ICAO airport designator
Station Type Date Time Source
KFYM METAR 2021/07/26 15:35 UTC NOAA

KFYM 261535Z AUTO 00000KT 9SM SCT020 29/25 A3004 RMK A01


Station Type Date Time Source
KFYM Decoded METAR 2021/07/26 15:35 UTC NOAA

Station name not available
Jul 26, 2021 - 11:35 AM EDT / 2021.07.26 1535 UTC
Wind: Calm:0
Visibility: 9 mile(s):0
Sky conditions: partly cloudy
Temperature: 84 F (29 C)
Dew Point: 77 F (25 C)
Relative Humidity: 79%
Pressure (altimeter): 30.04 in. Hg (1017 hPa)
ob: KFYM 261535Z AUTO 00000KT 9SM SCT020 29/25 A3004 RMK A01
cycle: 15

Station Type Date Time Source
KFYM TAF 2009/08/31 19:45 UTC NOAA

METAR KFYM 311945Z AUTO 01006KT 10SM CLR 26/11 A3009
RMK AO1 T02550111 $

Example: see airport list